.
WxDataArchive / Data Records for 2014-02-23
2014-02-22 February 2014 2014-02-24

Data Records for Sunday, 23 February 2014

Time	Temp	Chill	HIndex	Humid	Dewpt	 Wind 	HiWind	WindDir	Rain 	Barom
-----	----	-----	------	-----	-----	------	------	-------	-----	-----
00:00	32.4	32.4	32.4	85	28.4	0	1	248	0.00	30.022 
00:05	32.4	32.4	32.4	84	28.1	0	1	248	0.00	30.022 
00:10	32.4	32.4	32.4	84	28.1	0	1	248	0.00	30.022 
00:15	32.4	32.4	32.4	84	28.1	0	1	248	0.00	30.025 
00:20	32.4	32.4	32.4	84	28.1	0	1	248	0.00	30.025 
00:25	32.4	32.4	32.4	84	28.1	0	1	248	0.00	30.025 
00:30	32.4	32.4	32.4	83	27.8	0	1	248	0.00	30.030 
00:35	32.2	32.2	32.2	83	27.6	0	1	248	0.00	30.030 
00:40	32.2	32.2	32.2	83	27.6	0	1	248	0.00	30.030 
00:45	32.2	32.2	32.2	82	27.3	0	1	248	0.00	30.026 
00:50	32.2	32.2	32.2	82	27.3	0	1	248	0.00	30.026 
00:55	32.2	32.2	32.2	82	27.3	0	1	248	0.00	30.026 
01:00	32.2	32.2	32.2	82	27.3	0	0	---	0.00	30.029 
01:05	32.2	32.2	32.2	82	27.3	0	2	248	0.00	30.029 
01:10	32.2	32.2	32.2	82	27.3	0	1	248	0.00	30.029 
01:15	32.2	32.2	32.2	81	27.0	0	1	248	0.00	30.024 
01:20	32.1	32.1	32.1	81	26.9	0	1	248	0.00	30.024 
01:25	32.1	32.1	32.1	81	26.9	0	1	248	0.00	30.024 
01:30	32.1	32.1	32.1	81	26.9	0	1	248	0.00	30.024 
01:35	32.1	32.1	32.1	81	26.9	0	1	248	0.00	30.024 
01:40	32.1	32.1	32.1	81	26.9	0	1	248	0.00	30.024 
01:45	31.9	31.9	31.9	80	26.4	0	1	248	0.00	30.021 
01:50	31.9	31.9	31.9	80	26.4	0	0	---	0.00	30.021 
01:55	31.9	31.9	31.9	80	26.4	0	1	248	0.00	30.021 
02:00	31.9	31.9	31.9	80	26.4	0	1	248	0.00	30.023 
02:05	31.8	31.8	31.8	79	26.0	0	0	---	0.00	30.023 
02:10	31.8	31.8	31.8	79	26.0	0	0	---	0.00	30.023 
02:15	31.8	31.8	31.8	79	26.0	0	1	248	0.00	30.031 
02:20	31.6	31.6	31.6	79	25.8	0	1	248	0.00	30.031 
02:25	31.6	31.6	31.6	79	25.8	0	0	---	0.00	30.031 
02:30	31.5	31.5	31.5	79	25.8	0	1	248	0.00	30.025 
02:35	31.3	31.3	31.3	79	25.6	0	1	248	0.00	30.025 
02:40	31.2	31.2	31.2	79	25.5	0	0	---	0.00	30.025 
02:45	31.0	31.0	31.0	79	25.3	0	1	248	0.00	30.018 
02:50	31.0	31.0	31.0	79	25.3	0	0	---	0.00	30.018 
02:55	30.9	30.9	30.9	79	25.2	0	1	248	0.00	30.018 
03:00	30.7	30.7	30.7	79	25.0	0	1	248	0.00	30.021 
03:05	30.7	30.7	30.7	79	25.0	0	0	---	0.00	30.021 
03:10	30.7	30.7	30.7	80	25.3	0	1	248	0.00	30.021 
03:15	30.7	30.7	30.7	80	25.3	0	0	---	0.00	30.019 
03:20	30.6	30.6	30.6	80	25.2	0	1	248	0.00	30.019 
03:25	30.6	30.6	30.6	80	25.2	0	1	248	0.00	30.019 
03:30	30.6	30.6	30.6	80	25.2	0	1	248	0.00	30.026 
03:35	30.4	30.4	30.4	79	24.7	0	1	248	0.00	30.026 
03:40	30.4	30.4	30.4	78	24.4	0	2	248	0.00	30.026 
03:45	30.4	30.4	30.4	78	24.4	0	1	248	0.00	30.030 
03:50	30.3	30.3	30.3	77	24.0	0	1	248	0.00	30.030 
03:55	30.1	30.1	30.1	77	23.8	0	1	248	0.00	30.030 
04:00	30.0	30.0	30.0	77	23.7	0	1	248	0.00	30.028 
04:05	29.7	29.7	29.7	76	23.1	0	2	248	0.00	30.028 
04:10	29.4	29.4	29.4	76	22.8	0	1	248	0.00	30.028 
04:15	29.3	29.3	29.3	75	22.4	0	1	248	0.00	30.037 
04:20	29.1	29.1	29.1	74	21.9	0	1	248	0.00	30.037 
04:25	28.8	28.8	28.8	74	21.6	0	1	248	0.00	30.037 
04:30	28.7	28.7	28.7	74	21.5	0	1	248	0.00	30.042 
04:35	28.5	28.5	28.5	74	21.3	0	0	---	0.00	30.042 
04:40	28.4	28.4	28.4	74	21.2	0	0	---	0.00	30.042 
04:45	28.1	28.1	28.1	75	21.2	0	0	---	0.00	30.055 
04:50	27.8	27.8	27.8	75	20.9	0	0	---	0.00	30.055 
04:55	27.6	27.6	27.6	76	21.0	0	0	---	0.00	30.055 
05:00	27.3	27.3	27.3	77	21.1	0	0	---	0.00	30.065 
05:05	27.2	27.2	27.2	77	21.0	0	1	248	0.00	30.065 
05:10	27.0	27.0	27.0	77	20.8	0	0	---	0.00	30.065 
05:15	26.9	26.9	26.9	76	20.4	0	0	---	0.00	30.067 
05:20	26.7	26.7	26.7	75	19.9	0	0	---	0.00	30.067 
05:25	26.4	26.4	26.4	75	19.6	0	1	248	0.00	30.067 
05:30	26.3	26.3	26.3	74	19.2	0	1	248	0.00	30.066 
05:35	26.3	26.3	26.3	73	18.8	0	0	---	0.00	30.066 
05:40	26.1	26.1	26.1	73	18.7	0	1	248	0.00	30.066 
05:45	26.0	26.0	26.0	72	18.2	0	1	248	0.00	30.077 
05:50	26.0	26.0	26.0	71	17.9	0	1	248	0.00	30.077 
05:55	25.8	25.8	25.8	70	17.4	0	1	248	0.00	30.077 
06:00	25.7	25.7	25.7	70	17.3	0	0	---	0.00	30.088 
06:05	25.6	25.6	25.6	70	17.2	0	0	---	0.00	30.088 
06:10	25.4	25.4	25.4	70	17.0	0	0	---	0.00	30.088 
06:15	25.3	25.3	25.3	70	16.9	0	0	---	0.00	30.090 
06:20	25.0	25.0	25.0	71	16.9	0	0	---	0.00	30.090 
06:25	24.8	24.8	24.8	71	16.8	0	0	---	0.00	30.090 
06:30	24.8	24.8	24.8	71	16.8	0	0	---	0.00	30.095 
06:35	24.8	24.8	24.8	71	16.8	0	0	---	0.00	30.095 
06:40	24.8	24.8	24.8	72	17.1	0	1	248	0.00	30.095 
06:45	24.8	24.8	24.8	72	17.1	0	1	248	0.00	30.106 
06:50	25.0	25.0	25.0	71	16.9	0	1	248	0.00	30.106 
06:55	25.1	25.1	25.1	71	17.0	0	1	248	0.00	30.106 
07:00	25.3	25.3	25.3	71	17.2	0	1	248	0.00	30.104 
07:05	25.3	25.3	25.3	71	17.2	0	1	248	0.00	30.104 
07:10	25.3	25.3	25.3	71	17.2	0	1	248	0.00	30.104 
07:15	25.3	25.3	25.3	71	17.2	0	1	248	0.00	30.095 
07:20	25.3	25.3	25.3	71	17.2	0	1	248	0.00	30.095 
07:25	25.1	25.1	25.1	71	17.0	0	2	248	0.00	30.095 
07:30	25.1	25.1	25.1	71	17.0	0	1	248	0.00	30.094 
07:35	25.1	25.1	25.1	71	17.0	0	2	248	0.00	30.094 
07:40	25.1	25.1	25.1	71	17.0	0	2	248	0.00	30.094 
07:45	25.3	25.3	25.3	72	17.6	0	1	248	0.00	30.095 
07:50	25.3	25.3	25.3	72	17.6	0	2	248	0.00	30.095 
07:55	25.4	25.4	25.4	72	17.7	0	2	248	0.00	30.095 
08:00	25.4	25.4	25.4	71	17.3	0	1	248	0.00	30.110 
08:05	25.6	25.6	25.6	71	17.5	0	3	248	0.00	30.110 
08:10	25.6	25.6	25.6	71	17.5	1	3	292	0.00	30.110 
08:15	25.7	25.7	25.7	70	17.3	1	5	248	0.00	30.124 
08:20	25.7	25.7	25.7	70	17.3	1	4	338	0.00	30.124 
08:25	25.8	25.8	25.8	71	17.7	1	4	315	0.00	30.124 
08:30	25.8	25.8	25.8	70	17.4	1	4	315	0.00	30.139 
08:35	26.0	26.0	26.0	70	17.6	0	2	270	0.00	30.139 
08:40	26.1	26.1	26.1	70	17.7	1	4	270	0.00	30.139 
08:45	26.1	26.1	26.1	69	17.3	1	3	292	0.00	30.142 
08:50	26.0	26.0	26.0	69	17.2	1	3	270	0.00	30.142 
08:55	26.1	26.1	26.1	69	17.3	1	4	315	0.00	30.142 
09:00	26.3	26.3	26.3	69	17.5	1	4	270	0.00	30.145 
09:05	26.3	26.3	26.3	69	17.5	1	2	270	0.00	30.145 
09:10	26.3	26.3	26.3	68	17.2	1	4	270	0.00	30.145 
09:15	26.3	26.3	26.3	68	17.2	1	3	248	0.00	30.148 
09:20	26.4	26.4	26.4	68	17.3	1	4	270	0.00	30.148 
09:25	26.6	26.6	26.6	68	17.5	0	2	292	0.00	30.148 
09:30	26.7	26.7	26.7	68	17.6	1	5	292	0.00	30.146 
09:35	26.6	26.6	26.6	66	16.8	1	4	270	0.00	30.146 
09:40	26.7	26.7	26.7	66	16.9	2	4	270	0.00	30.146 
09:45	26.7	26.7	26.7	65	16.5	1	3	248	0.00	30.147 
09:50	26.7	26.7	26.7	65	16.5	1	3	270	0.00	30.147 
09:55	26.9	26.9	26.9	64	16.4	1	4	270	0.00	30.147 
10:00	27.0	27.0	27.0	62	15.7	1	3	248	0.00	30.144 
10:05	27.0	27.0	27.0	62	15.7	1	4	270	0.00	30.144 
10:10	27.0	27.0	27.0	62	15.7	1	3	270	0.00	30.144 
10:15	27.0	27.0	27.0	62	15.7	1	3	315	0.00	30.142 
10:20	27.2	27.2	27.2	62	15.9	1	3	292	0.00	30.142 
10:25	27.3	27.3	27.3	61	15.7	1	2	292	0.00	30.142 
10:30	27.3	27.3	27.3	59	14.9	1	3	270	0.00	30.140 
10:35	27.3	27.3	27.3	59	14.9	2	4	270	0.00	30.140 
10:40	27.5	27.5	27.5	58	14.7	2	4	270	0.00	30.140 
10:45	27.8	27.8	27.8	58	15.0	2	4	248	0.00	30.139 
10:50	27.8	27.8	27.8	59	15.4	1	2	248	0.00	30.139 
10:55	27.9	27.9	27.9	59	15.5	1	3	248	0.00	30.139 
11:00	27.9	27.9	27.9	60	15.8	1	4	248	0.00	30.136 
11:05	28.1	28.1	28.1	61	16.4	1	3	248	0.00	30.136 
11:10	28.4	28.4	28.4	60	16.3	1	4	248	0.00	30.136 
11:15	28.5	28.5	28.5	60	16.4	1	4	248	0.00	30.137 
11:20	28.8	28.8	28.8	60	16.7	2	4	248	0.01	30.137 
11:25	29.0	29.0	29.0	59	16.5	1	4	270	0.00	30.137 
11:30	29.7	29.7	29.7	60	17.5	1	3	315	0.00	30.138 
11:35	29.5	29.5	29.5	57	16.2	2	5	270	0.00	30.138 
11:40	29.5	29.5	29.5	56	15.8	2	4	248	0.00	30.138 
11:45	29.4	29.4	29.4	56	15.7	2	4	270	0.00	30.135 
11:50	29.5	29.5	29.5	56	15.8	1	5	270	0.00	30.135 
11:55	29.7	29.7	29.7	56	15.9	2	4	248	0.00	30.135 
12:00	29.8	29.8	29.8	55	15.6	2	4	248	0.00	30.136 
12:05	29.7	29.7	29.7	55	15.5	1	3	248	0.00	30.136 
12:10	29.5	29.5	29.5	55	15.3	1	3	270	0.00	30.136 
12:15	29.8	29.8	29.8	57	16.4	1	3	248	0.00	30.133 
12:20	30.1	30.1	30.1	55	15.9	1	4	248	0.00	30.133 
12:25	30.1	30.1	30.1	55	15.9	1	4	248	0.00	30.133 
12:30	30.0	30.0	30.0	53	15.0	2	5	270	0.00	30.136 
12:35	30.0	30.0	30.0	54	15.4	2	5	270	0.00	30.136 
12:40	29.8	29.8	29.8	55	15.6	2	4	292	0.00	30.136 
12:45	30.3	30.3	30.3	56	16.5	1	4	292	0.00	30.136 
12:50	30.3	30.3	30.3	54	15.7	2	6	270	0.00	30.136 
12:55	30.3	30.3	30.3	52	14.8	2	7	270	0.00	30.136 
13:00	30.1	30.1	30.1	50	13.7	2	5	270	0.00	30.136 
13:05	29.7	29.7	29.7	46	11.5	3	10	270	0.00	30.136 
13:10	29.8	29.8	29.8	47	12.1	3	6	270	0.00	30.136 
13:15	30.0	30.0	30.0	48	12.7	3	5	292	0.00	30.136 
13:20	30.1	30.1	30.1	47	12.3	2	5	270	0.00	30.136 
13:25	29.8	29.8	29.8	48	12.5	2	6	315	0.00	30.136 
13:30	30.0	30.0	30.0	50	13.6	2	7	248	0.00	30.122 
13:35	30.1	30.1	30.1	52	14.6	2	4	270	0.00	30.122 
13:40	30.4	30.4	30.4	52	14.9	1	4	270	0.00	30.122 
13:45	30.4	30.4	30.4	52	14.9	2	5	248	0.00	30.119 
13:50	30.3	30.3	30.3	51	14.4	2	5	315	0.00	30.119 
13:55	30.1	30.1	30.1	52	14.6	2	4	248	0.00	30.119 
14:00	30.0	30.0	30.0	52	14.5	2	4	270	0.00	30.114 
14:05	30.1	30.1	30.1	53	15.1	2	5	248	0.00	30.114 
14:10	30.3	30.3	30.3	52	14.8	2	4	270	0.00	30.114 
14:15	30.3	30.3	30.3	53	15.2	2	4	270	0.00	30.120 
14:20	30.1	30.1	30.1	52	14.6	2	4	270	0.00	30.120 
14:25	30.1	30.1	30.1	51	14.2	2	5	270	0.00	30.120 
14:30	30.1	30.1	30.1	52	14.6	2	4	248	0.00	30.122 
14:35	30.0	30.0	30.0	52	14.5	2	4	248	0.00	30.122 
14:40	29.8	29.8	29.8	52	14.3	2	6	270	0.00	30.122 
14:45	29.7	29.7	29.7	52	14.3	2	11	270	0.00	30.122 
14:50	29.5	29.5	29.5	49	12.7	3	10	270	0.00	30.122 
14:55	29.4	29.4	29.4	50	13.1	3	10	338	0.00	30.122 
15:00	29.4	29.4	29.4	52	14.0	2	4	248	0.00	30.123 
15:05	29.5	29.5	29.5	54	14.9	1	4	270	0.00	30.123 
15:10	29.5	29.5	29.5	50	13.2	3	9	270	0.00	30.123 
15:15	29.3	29.3	29.3	48	12.1	2	7	292	0.00	30.121 
15:20	29.5	29.5	29.5	50	13.2	2	5	270	0.00	30.121 
15:25	29.7	29.7	29.7	50	13.4	2	4	248	0.00	30.121 
15:30	29.7	29.7	29.7	51	13.8	2	5	292	0.00	30.122 
15:35	30.0	30.0	30.0	50	13.6	2	4	292	0.00	30.122 
15:40	29.8	29.8	29.8	49	13.0	2	5	270	0.00	30.122 
15:45	29.5	29.5	29.5	48	12.3	3	6	270	0.00	30.123 
15:50	29.4	29.4	29.4	47	11.7	2	6	292	0.00	30.123 
15:55	29.1	29.1	29.1	46	10.9	3	6	292	0.00	30.123 
16:00	29.3	29.3	29.3	47	11.6	2	4	270	0.00	30.129 
16:05	29.3	29.3	29.3	46	11.1	3	7	270	0.00	30.129 
16:10	29.1	29.1	29.1	48	11.9	2	4	248	0.00	30.129 
16:15	29.1	29.1	29.1	48	11.9	2	6	315	0.00	30.136 
16:20	29.3	29.3	29.3	49	12.5	2	5	270	0.00	30.136 
16:25	29.1	29.1	29.1	46	10.9	3	5	270	0.00	30.136 
16:30	28.7	28.7	28.7	45	10.1	2	6	292	0.00	30.134 
16:35	28.5	28.5	28.5	47	10.9	2	7	270	0.00	30.134 
16:40	28.5	28.5	28.5	47	10.9	3	5	270	0.00	30.134 
16:45	28.7	28.7	28.7	45	10.1	3	9	270	0.00	30.141 
16:50	28.5	28.5	28.5	45	9.9	2	7	270	0.00	30.141 
16:55	28.4	28.4	28.4	45	9.8	2	5	270	0.00	30.141 
17:00	28.5	28.5	28.5	48	11.3	2	5	248	0.00	30.146 
17:05	28.5	28.5	28.5	47	10.9	2	5	270	0.00	30.146 
17:10	28.4	28.4	28.4	46	10.3	3	7	270	0.00	30.146 
17:15	28.1	28.1	28.1	45	9.5	2	8	248	0.00	30.146 
17:20	27.9	27.9	27.9	45	9.3	2	7	270	0.00	30.146 
17:25	27.6	27.6	27.6	44	8.6	2	6	270	0.00	30.146 
17:30	27.3	27.3	27.3	45	8.8	2	5	270	0.00	30.150 
17:35	27.2	27.2	27.2	46	9.2	1	4	270	0.00	30.150 
17:40	27.2	27.2	27.2	48	10.1	1	3	248	0.00	30.150 
17:45	27.2	27.2	27.2	50	11.1	1	3	292	0.00	30.153 
17:50	27.0	27.0	27.0	51	11.3	1	3	292	0.00	30.153 
17:55	26.9	26.9	26.9	51	11.2	1	3	270	0.00	30.153 
18:00	26.6	26.6	26.6	51	10.9	1	5	270	0.00	30.148 
18:05	26.4	26.4	26.4	50	10.3	2	4	270	0.00	30.148 
18:10	26.3	26.3	26.3	50	10.2	1	3	270	0.00	30.148 
18:15	26.0	26.0	26.0	50	9.9	1	3	270	0.00	30.148 
18:20	25.8	25.8	25.8	50	9.8	1	3	270	0.00	30.148 
18:25	25.7	25.7	25.7	50	9.7	1	2	270	0.00	30.148 
18:30	25.6	25.6	25.6	50	9.6	1	3	270	0.00	30.149 
18:35	25.4	25.4	25.4	51	9.8	0	2	270	0.00	30.149 
18:40	25.3	25.3	25.3	51	9.7	0	2	270	0.00	30.149 
18:45	25.1	25.1	25.1	52	10.0	0	1	270	0.00	30.157 
18:50	25.0	25.0	25.0	53	10.3	0	1	270	0.00	30.157 
18:55	24.7	24.7	24.7	54	10.5	0	1	270	0.00	30.157 
19:00	24.7	24.7	24.7	54	10.5	1	2	270	0.00	30.164 
19:05	24.7	24.7	24.7	53	10.0	0	2	270	0.00	30.164 
19:10	24.5	24.5	24.5	53	9.8	0	2	270	0.00	30.164 
19:15	24.4	24.4	24.4	54	10.2	0	1	270	0.00	30.166 
19:20	24.2	24.2	24.2	54	10.0	0	1	270	0.00	30.166 
19:25	24.1	24.1	24.1	54	9.9	0	1	270	0.00	30.166 
19:30	23.9	23.9	23.9	54	9.7	0	1	270	0.00	30.167 
19:35	23.8	23.8	23.8	54	9.6	0	1	270	0.00	30.167 
19:40	23.8	23.8	23.8	54	9.6	0	1	270	0.00	30.167 
19:45	23.6	23.6	23.6	54	9.4	0	1	270	0.00	30.164 
19:50	23.5	23.5	23.5	55	9.7	0	1	270	0.00	30.164 
19:55	23.2	23.2	23.2	55	9.5	0	0	---	0.00	30.164 
20:00	23.0	23.0	23.0	56	9.7	0	1	270	0.00	30.160 
20:05	22.9	22.9	22.9	56	9.6	0	1	270	0.00	30.160 
20:10	22.9	22.9	22.9	56	9.6	0	0	---	0.00	30.160 
20:15	22.7	22.7	22.7	56	9.4	0	1	270	0.00	30.163 
20:20	22.5	22.5	22.5	57	9.6	0	1	270	0.00	30.163 
20:25	22.4	22.4	22.4	58	9.9	0	1	270	0.00	30.163 
20:30	22.4	22.4	22.4	58	9.9	0	1	270	0.00	30.164 
20:35	22.4	22.4	22.4	58	9.9	0	1	270	0.00	30.164 
20:40	22.5	22.5	22.5	58	10.0	1	3	248	0.00	30.164 
20:45	22.7	22.7	22.7	58	10.2	1	3	248	0.00	30.167 
20:50	22.9	22.9	22.9	58	10.4	1	3	248	0.00	30.167 
20:55	22.9	22.9	22.9	59	10.7	1	4	248	0.00	30.167 
21:00	22.9	22.9	22.9	60	11.1	0	3	248	0.00	30.166 
21:05	22.9	22.9	22.9	60	11.1	0	2	248	0.00	30.166 
21:10	22.9	22.9	22.9	61	11.5	1	4	270	0.00	30.166 
21:15	22.7	22.7	22.7	62	11.7	1	5	248	0.00	30.163 
21:20	22.7	22.7	22.7	62	11.7	1	3	248	0.00	30.163 
21:25	22.5	22.5	22.5	63	11.8	0	3	270	0.00	30.163 
21:30	22.5	22.5	22.5	64	12.2	1	5	248	0.00	30.169 
21:35	22.5	22.5	22.5	64	12.2	1	3	248	0.00	30.169 
21:40	22.4	22.4	22.4	65	12.4	0	3	248	0.00	30.169 
21:45	22.2	22.2	22.2	65	12.3	1	3	248	0.00	30.175 
21:50	22.2	22.2	22.2	65	12.3	1	4	248	0.00	30.175 
21:55	22.2	22.2	22.2	65	12.3	1	6	248	0.00	30.175 
22:00	22.2	22.2	22.2	64	11.9	2	5	248	0.00	30.174 
22:05	22.2	22.2	22.2	64	11.9	1	3	248	0.00	30.174 
22:10	22.1	22.1	22.1	64	11.8	1	4	248	0.00	30.174 
22:15	22.1	22.1	22.1	64	11.8	2	6	248	0.00	30.164 
22:20	21.9	21.9	21.9	64	11.6	1	3	225	0.00	30.164 
22:25	21.9	21.9	21.9	64	11.6	1	4	248	0.00	30.164 
22:30	21.8	21.8	21.8	64	11.5	1	4	248	0.00	30.163 
22:35	21.8	21.8	21.8	64	11.5	1	5	248	0.00	30.163 
22:40	21.6	21.6	21.6	64	11.3	1	4	248	0.00	30.163 
22:45	21.6	21.6	21.6	64	11.3	1	5	270	0.00	30.165 
22:50	21.4	21.4	21.4	64	11.1	1	3	248	0.00	30.165 
22:55	21.3	21.3	21.3	64	11.0	1	4	248	0.00	30.165 
23:00	21.1	21.1	21.1	64	10.9	1	4	248	0.00	30.161 
23:05	21.1	21.1	21.1	64	10.9	1	4	248	0.00	30.161 
23:10	21.1	21.1	21.1	64	10.9	1	3	248	0.00	30.161 
23:15	21.0	21.0	21.0	64	10.8	1	3	248	0.00	30.159 
23:20	20.8	20.8	20.8	65	10.9	1	3	248	0.00	30.159 
23:25	20.8	20.8	20.8	65	10.9	1	3	248	0.00	30.159 
23:30	20.6	20.6	20.6	65	10.7	1	3	270	0.00	30.159 
23:35	20.5	20.5	20.5	65	10.6	1	2	270	0.00	30.159 
23:40	20.5	20.5	20.5	65	10.6	1	4	248	0.00	30.159 
23:45	20.3	20.3	20.3	65	10.4	1	3	248	0.00	30.160 
23:50	20.3	20.3	20.3	66	10.8	0	3	270	0.00	30.160 
23:55	20.2	20.2	20.2	66	10.7	1	4	248	0.00	30.160 

CoCoRaHS
IN-AL-39
A2 Web Hosting
Creative Commons License
GoDaddy
search engine by freefind advanced

loaded 2018-11-20 09:12:22 • last modified 2010-11-18 10:43:29
Privacy PolicyDisclaimer
• wx.awcolley.com is powered by PmWiki v.2002016 •
• all content (unless otherwise noted) © 2018 A W Colley